<?xml version="1.0" encoding="UTF-8" standalone="no" ?>
<gpx xmlns="http://www.topografix.com/GPX/1/1" xmlns:xsi="http://www.w3.org/2001/XMLSchema-instance" xsi:schemaLocation="http://www.topografix.com/GPX/1/1 http://www.topografix.com/GPX/1/1/gpx.xsd" version="1.1" creator="VisuGPX - https://www.visugpx.com">
  <metadata>
    <name>MN 92 Chaville</name>
    <desc><![CDATA[MN RIF 06-2015]]></desc>
  </metadata>
  <trk>
    <name><![CDATA[MN Chaville Annick ]]></name>
    <cmt><![CDATA[RIF 2015-06]]></cmt>
    <desc><![CDATA[comment ...]]></desc>
    <trkseg>
      <trkpt lat="48.79336" lon="2.18545">
        <ele>147</ele>
        <time>2015-06-07T07:15:28Z</time>
      </trkpt>
      <trkpt lat="48.79336" lon="2.18545">
        <ele>147</ele>
        <time>2015-06-07T07:15:29Z</time>
      </trkpt>
      <trkpt lat="48.79337" lon="2.18546">
        <ele>143</ele>
        <time>2015-06-07T07:17:10Z</time>
      </trkpt>
      <trkpt lat="48.79333" lon="2.18542">
        <ele>144</ele>
        <time>2015-06-07T07:18:11Z</time>
      </trkpt>
      <trkpt lat="48.79331" lon="2.18539">
        <ele>143</ele>
        <time>2015-06-07T07:18:35Z</time>
      </trkpt>
      <trkpt lat="48.79329" lon="2.1854">
        <ele>144</ele>
        <time>2015-06-07T07:18:39Z</time>
      </trkpt>
      <trkpt lat="48.79326" lon="2.18546">
        <ele>146</ele>
        <time>2015-06-07T07:18:44Z</time>
      </trkpt>
      <trkpt lat="48.79305" lon="2.18588">
        <ele>149</ele>
        <time>2015-06-07T07:19:15Z</time>
      </trkpt>
      <trkpt lat="48.79302" lon="2.18593">
        <ele>148</ele>
        <time>2015-06-07T07:19:18Z</time>
      </trkpt>
      <trkpt lat="48.79301" lon="2.18596">
        <ele>148</ele>
        <time>2015-06-07T07:19:20Z</time>
      </trkpt>
      <trkpt lat="48.793" lon="2.18598">
        <ele>148</ele>
        <time>2015-06-07T07:19:22Z</time>
      </trkpt>
      <trkpt lat="48.793" lon="2.18603">
        <ele>146</ele>
        <time>2015-06-07T07:19:25Z</time>
      </trkpt>
      <trkpt lat="48.79285" lon="2.18672">
        <ele>139</ele>
        <time>2015-06-07T07:19:53Z</time>
      </trkpt>
      <trkpt lat="48.79282" lon="2.18676">
        <ele>138</ele>
        <time>2015-06-07T07:19:57Z</time>
      </trkpt>
      <trkpt lat="48.79278" lon="2.18696">
        <ele>139</ele>
        <time>2015-06-07T07:20:07Z</time>
      </trkpt>
      <trkpt lat="48.79276" lon="2.1872">
        <ele>140</ele>
        <time>2015-06-07T07:20:16Z</time>
      </trkpt>
      <trkpt lat="48.79263" lon="2.18795">
        <ele>140</ele>
        <time>2015-06-07T07:20:47Z</time>
      </trkpt>
      <trkpt lat="48.79254" lon="2.18847">
        <ele>143</ele>
        <time>2015-06-07T07:21:11Z</time>
      </trkpt>
      <trkpt lat="48.79253" lon="2.1886">
        <ele>143</ele>
        <time>2015-06-07T07:21:20Z</time>
      </trkpt>
      <trkpt lat="48.79254" lon="2.18864">
        <ele>143</ele>
        <time>2015-06-07T07:21:22Z</time>
      </trkpt>
      <trkpt lat="48.7927" lon="2.18892">
        <ele>149</ele>
        <time>2015-06-07T07:21:41Z</time>
      </trkpt>
      <trkpt lat="48.79317" lon="2.18931">
        <ele>152</ele>
        <time>2015-06-07T07:22:11Z</time>
      </trkpt>
      <trkpt lat="48.79366" lon="2.18967">
        <ele>147</ele>
        <time>2015-06-07T07:22:41Z</time>
      </trkpt>
      <trkpt lat="48.79399" lon="2.1899">
        <ele>140</ele>
        <time>2015-06-07T07:23:00Z</time>
      </trkpt>
      <trkpt lat="48.79406" lon="2.18979">
        <ele>139</ele>
        <time>2015-06-07T07:23:06Z</time>
      </trkpt>
      <trkpt lat="48.79421" lon="2.18916">
        <ele>141</ele>
        <time>2015-06-07T07:23:37Z</time>
      </trkpt>
      <trkpt lat="48.7943" lon="2.18846">
        <ele>133</ele>
        <time>2015-06-07T07:24:07Z</time>
      </trkpt>
      <trkpt lat="48.79443" lon="2.18768">
        <ele>122</ele>
        <time>2015-06-07T07:24:37Z</time>
      </trkpt>
      <trkpt lat="48.79456" lon="2.18696">
        <ele>121</ele>
        <time>2015-06-07T07:25:07Z</time>
      </trkpt>
      <trkpt lat="48.79454" lon="2.18695">
        <ele>120</ele>
        <time>2015-06-07T07:25:08Z</time>
      </trkpt>
      <trkpt lat="48.79439" lon="2.18684">
        <ele>121</ele>
        <time>2015-06-07T07:25:19Z</time>
      </trkpt>
      <trkpt lat="48.79438" lon="2.1868">
        <ele>122</ele>
        <time>2015-06-07T07:25:21Z</time>
      </trkpt>
      <trkpt lat="48.79439" lon="2.18674">
        <ele>123</ele>
        <time>2015-06-07T07:25:24Z</time>
      </trkpt>
      <trkpt lat="48.79438" lon="2.1867">
        <ele>123</ele>
        <time>2015-06-07T07:25:26Z</time>
      </trkpt>
      <trkpt lat="48.79434" lon="2.18665">
        <ele>125</ele>
        <time>2015-06-07T07:25:30Z</time>
      </trkpt>
      <trkpt lat="48.79434" lon="2.18662">
        <ele>126</ele>
        <time>2015-06-07T07:25:32Z</time>
      </trkpt>
      <trkpt lat="48.79433" lon="2.18658">
        <ele>126</ele>
        <time>2015-06-07T07:25:34Z</time>
      </trkpt>
      <trkpt lat="48.79398" lon="2.18618">
        <ele>133</ele>
        <time>2015-06-07T07:26:04Z</time>
      </trkpt>
      <trkpt lat="48.79361" lon="2.18578">
        <ele>140</ele>
        <time>2015-06-07T07:26:33Z</time>
      </trkpt>
      <trkpt lat="48.79355" lon="2.18571">
        <ele>145</ele>
        <time>2015-06-07T07:26:39Z</time>
      </trkpt>
      <trkpt lat="48.79345" lon="2.18565">
        <ele>148</ele>
        <time>2015-06-07T07:26:47Z</time>
      </trkpt>
      <trkpt lat="48.79346" lon="2.18559">
        <ele>145</ele>
        <time>2015-06-07T07:27:13Z</time>
      </trkpt>
      <trkpt lat="48.79344" lon="2.18557">
        <ele>144</ele>
        <time>2015-06-07T07:27:20Z</time>
      </trkpt>
      <trkpt lat="48.79342" lon="2.18556">
        <ele>144</ele>
        <time>2015-06-07T07:27:23Z</time>
      </trkpt>
      <trkpt lat="48.7934" lon="2.18555">
        <ele>142</ele>
        <time>2015-06-07T07:27:56Z</time>
      </trkpt>
      <trkpt lat="48.79338" lon="2.18552">
        <ele>141</ele>
        <time>2015-06-07T07:28:25Z</time>
      </trkpt>
      <trkpt lat="48.79334" lon="2.18556">
        <ele>142</ele>
        <time>2015-06-07T07:31:01Z</time>
      </trkpt>
      <trkpt lat="48.79332" lon="2.18558">
        <ele>146</ele>
        <time>2015-06-07T07:31:04Z</time>
      </trkpt>
      <trkpt lat="48.7931" lon="2.1861">
        <ele>155</ele>
        <time>2015-06-07T07:31:35Z</time>
      </trkpt>
      <trkpt lat="48.79308" lon="2.18617">
        <ele>157</ele>
        <time>2015-06-07T07:31:39Z</time>
      </trkpt>
      <trkpt lat="48.79303" lon="2.18623">
        <ele>158</ele>
        <time>2015-06-07T07:31:43Z</time>
      </trkpt>
      <trkpt lat="48.79289" lon="2.18668">
        <ele>152</ele>
        <time>2015-06-07T07:31:59Z</time>
      </trkpt>
      <trkpt lat="48.79276" lon="2.18716">
        <ele>145</ele>
        <time>2015-06-07T07:32:20Z</time>
      </trkpt>
      <trkpt lat="48.79274" lon="2.18721">
        <ele>143</ele>
        <time>2015-06-07T07:32:22Z</time>
      </trkpt>
      <trkpt lat="48.79263" lon="2.18793">
        <ele>143</ele>
        <time>2015-06-07T07:32:53Z</time>
      </trkpt>
      <trkpt lat="48.79249" lon="2.18865">
        <ele>146</ele>
        <time>2015-06-07T07:33:23Z</time>
      </trkpt>
      <trkpt lat="48.79229" lon="2.18933">
        <ele>148</ele>
        <time>2015-06-07T07:33:53Z</time>
      </trkpt>
      <trkpt lat="48.79214" lon="2.19006">
        <ele>146</ele>
        <time>2015-06-07T07:34:24Z</time>
      </trkpt>
      <trkpt lat="48.79196" lon="2.19089">
        <ele>145</ele>
        <time>2015-06-07T07:34:55Z</time>
      </trkpt>
      <trkpt lat="48.79172" lon="2.19171">
        <ele>132</ele>
        <time>2015-06-07T07:35:25Z</time>
      </trkpt>
      <trkpt lat="48.79152" lon="2.19245">
        <ele>127</ele>
        <time>2015-06-07T07:35:55Z</time>
      </trkpt>
      <trkpt lat="48.79177" lon="2.19304">
        <ele>128</ele>
        <time>2015-06-07T07:36:25Z</time>
      </trkpt>
      <trkpt lat="48.79204" lon="2.19368">
        <ele>131</ele>
        <time>2015-06-07T07:36:55Z</time>
      </trkpt>
      <trkpt lat="48.79232" lon="2.19436">
        <ele>131</ele>
        <time>2015-06-07T07:37:25Z</time>
      </trkpt>
      <trkpt lat="48.79259" lon="2.19499">
        <ele>126</ele>
        <time>2015-06-07T07:37:56Z</time>
      </trkpt>
      <trkpt lat="48.79284" lon="2.19556">
        <ele>132</ele>
        <time>2015-06-07T07:38:26Z</time>
      </trkpt>
      <trkpt lat="48.79287" lon="2.19569">
        <ele>133</ele>
        <time>2015-06-07T07:38:31Z</time>
      </trkpt>
      <trkpt lat="48.79283" lon="2.19603">
        <ele>133</ele>
        <time>2015-06-07T07:38:45Z</time>
      </trkpt>
      <trkpt lat="48.79289" lon="2.19628">
        <ele>133</ele>
        <time>2015-06-07T07:38:57Z</time>
      </trkpt>
      <trkpt lat="48.79283" lon="2.19657">
        <ele>138</ele>
        <time>2015-06-07T07:39:11Z</time>
      </trkpt>
      <trkpt lat="48.79272" lon="2.19724">
        <ele>145</ele>
        <time>2015-06-07T07:39:41Z</time>
      </trkpt>
      <trkpt lat="48.79256" lon="2.19808">
        <ele>139</ele>
        <time>2015-06-07T07:40:11Z</time>
      </trkpt>
      <trkpt lat="48.7924" lon="2.19885">
        <ele>137</ele>
        <time>2015-06-07T07:40:42Z</time>
      </trkpt>
      <trkpt lat="48.79229" lon="2.19953">
        <ele>139</ele>
        <time>2015-06-07T07:41:12Z</time>
      </trkpt>
      <trkpt lat="48.79226" lon="2.19972">
        <ele>141</ele>
        <time>2015-06-07T07:41:20Z</time>
      </trkpt>
      <trkpt lat="48.79213" lon="2.20037">
        <ele>143</ele>
        <time>2015-06-07T07:41:50Z</time>
      </trkpt>
      <trkpt lat="48.79201" lon="2.20103">
        <ele>149</ele>
        <time>2015-06-07T07:42:18Z</time>
      </trkpt>
      <trkpt lat="48.79192" lon="2.20121">
        <ele>150</ele>
        <time>2015-06-07T07:42:28Z</time>
      </trkpt>
      <trkpt lat="48.79179" lon="2.20184">
        <ele>155</ele>
        <time>2015-06-07T07:42:59Z</time>
      </trkpt>
      <trkpt lat="48.79172" lon="2.2025">
        <ele>149</ele>
        <time>2015-06-07T07:43:24Z</time>
      </trkpt>
      <trkpt lat="48.79174" lon="2.20254">
        <ele>150</ele>
        <time>2015-06-07T07:43:27Z</time>
      </trkpt>
      <trkpt lat="48.79172" lon="2.20258">
        <ele>150</ele>
        <time>2015-06-07T07:43:29Z</time>
      </trkpt>
      <trkpt lat="48.79161" lon="2.20298">
        <ele>152</ele>
        <time>2015-06-07T07:43:43Z</time>
      </trkpt>
      <trkpt lat="48.7915" lon="2.20345">
        <ele>151</ele>
        <time>2015-06-07T07:44:04Z</time>
      </trkpt>
      <trkpt lat="48.79139" lon="2.20424">
        <ele>146</ele>
        <time>2015-06-07T07:44:34Z</time>
      </trkpt>
      <trkpt lat="48.79129" lon="2.20481">
        <ele>151</ele>
        <time>2015-06-07T07:45:04Z</time>
      </trkpt>
      <trkpt lat="48.79128" lon="2.20483">
        <ele>152</ele>
        <time>2015-06-07T07:45:06Z</time>
      </trkpt>
      <trkpt lat="48.79127" lon="2.20486">
        <ele>154</ele>
        <time>2015-06-07T07:45:08Z</time>
      </trkpt>
      <trkpt lat="48.79125" lon="2.20487">
        <ele>154</ele>
        <time>2015-06-07T07:45:13Z</time>
      </trkpt>
      <trkpt lat="48.79125" lon="2.2049">
        <ele>154</ele>
        <time>2015-06-07T07:45:17Z</time>
      </trkpt>
      <trkpt lat="48.79124" lon="2.20494">
        <ele>154</ele>
        <time>2015-06-07T07:45:19Z</time>
      </trkpt>
      <trkpt lat="48.79124" lon="2.20498">
        <ele>153</ele>
        <time>2015-06-07T07:45:21Z</time>
      </trkpt>
      <trkpt lat="48.79124" lon="2.20501">
        <ele>153</ele>
        <time>2015-06-07T07:45:23Z</time>
      </trkpt>
      <trkpt lat="48.79124" lon="2.20504">
        <ele>154</ele>
        <time>2015-06-07T07:45:26Z</time>
      </trkpt>
      <trkpt lat="48.79121" lon="2.20518">
        <ele>156</ele>
        <time>2015-06-07T07:45:34Z</time>
      </trkpt>
      <trkpt lat="48.79118" lon="2.20527">
        <ele>159</ele>
        <time>2015-06-07T07:45:43Z</time>
      </trkpt>
      <trkpt lat="48.79118" lon="2.2053">
        <ele>163</ele>
        <time>2015-06-07T07:45:45Z</time>
      </trkpt>
      <trkpt lat="48.79109" lon="2.20572">
        <ele>172</ele>
        <time>2015-06-07T07:46:17Z</time>
      </trkpt>
      <trkpt lat="48.79107" lon="2.20589">
        <ele>171</ele>
        <time>2015-06-07T07:46:27Z</time>
      </trkpt>
      <trkpt lat="48.79106" lon="2.20594">
        <ele>174</ele>
        <time>2015-06-07T07:46:34Z</time>
      </trkpt>
      <trkpt lat="48.79105" lon="2.20597">
        <ele>175</ele>
        <time>2015-06-07T07:46:37Z</time>
      </trkpt>
      <trkpt lat="48.79101" lon="2.20636">
        <ele>177</ele>
        <time>2015-06-07T07:47:07Z</time>
      </trkpt>
      <trkpt lat="48.79099" lon="2.2068">
        <ele>182</ele>
        <time>2015-06-07T07:47:31Z</time>
      </trkpt>
      <trkpt lat="48.79104" lon="2.20751">
        <ele>188</ele>
        <time>2015-06-07T07:48:02Z</time>
      </trkpt>
      <trkpt lat="48.79104" lon="2.20824">
        <ele>182</ele>
        <time>2015-06-07T07:48:33Z</time>
      </trkpt>
      <trkpt lat="48.79108" lon="2.20853">
        <ele>184</ele>
        <time>2015-06-07T07:48:45Z</time>
      </trkpt>
      <trkpt lat="48.79109" lon="2.20911">
        <ele>191</ele>
        <time>2015-06-07T07:49:11Z</time>
      </trkpt>
      <trkpt lat="48.79114" lon="2.2098">
        <ele>189</ele>
        <time>2015-06-07T07:49:42Z</time>
      </trkpt>
      <trkpt lat="48.79115" lon="2.21057">
        <ele>190</ele>
        <time>2015-06-07T07:50:13Z</time>
      </trkpt>
      <trkpt lat="48.79117" lon="2.21133">
        <ele>190</ele>
        <time>2015-06-07T07:50:44Z</time>
      </trkpt>
      <trkpt lat="48.79125" lon="2.21158">
        <ele>193</ele>
        <time>2015-06-07T07:50:58Z</time>
      </trkpt>
      <trkpt lat="48.79154" lon="2.21194">
        <ele>199</ele>
        <time>2015-06-07T07:51:28Z</time>
      </trkpt>
      <trkpt lat="48.7919" lon="2.21244">
        <ele>200</ele>
        <time>2015-06-07T07:51:58Z</time>
      </trkpt>
      <trkpt lat="48.79233" lon="2.21285">
        <ele>201</ele>
        <time>2015-06-07T07:52:29Z</time>
      </trkpt>
      <trkpt lat="48.79271" lon="2.21332">
        <ele>198</ele>
        <time>2015-06-07T07:52:59Z</time>
      </trkpt>
      <trkpt lat="48.79316" lon="2.21384">
        <ele>196</ele>
        <time>2015-06-07T07:53:29Z</time>
      </trkpt>
      <trkpt lat="48.79331" lon="2.21406">
        <ele>199</ele>
        <time>2015-06-07T07:53:41Z</time>
      </trkpt>
      <trkpt lat="48.79368" lon="2.2145">
        <ele>204</ele>
        <time>2015-06-07T07:54:12Z</time>
      </trkpt>
      <trkpt lat="48.79372" lon="2.21469">
        <ele>202</ele>
        <time>2015-06-07T07:54:19Z</time>
      </trkpt>
      <trkpt lat="48.79376" lon="2.21539">
        <ele>203</ele>
        <time>2015-06-07T07:54:49Z</time>
      </trkpt>
      <trkpt lat="48.79381" lon="2.21616">
        <ele>199</ele>
        <time>2015-06-07T07:55:19Z</time>
      </trkpt>
      <trkpt lat="48.79385" lon="2.217">
        <ele>187</ele>
        <time>2015-06-07T07:55:49Z</time>
      </trkpt>
      <trkpt lat="48.79378" lon="2.21795">
        <ele>173</ele>
        <time>2015-06-07T07:56:20Z</time>
      </trkpt>
      <trkpt lat="48.79377" lon="2.21815">
        <ele>176</ele>
        <time>2015-06-07T07:56:27Z</time>
      </trkpt>
      <trkpt lat="48.79376" lon="2.21819">
        <ele>176</ele>
        <time>2015-06-07T07:56:29Z</time>
      </trkpt>
      <trkpt lat="48.7936" lon="2.21844">
        <ele>180</ele>
        <time>2015-06-07T07:56:46Z</time>
      </trkpt>
      <trkpt lat="48.79378" lon="2.21906">
        <ele>177</ele>
        <time>2015-06-07T07:57:16Z</time>
      </trkpt>
      <trkpt lat="48.79381" lon="2.21922">
        <ele>174</ele>
        <time>2015-06-07T07:57:27Z</time>
      </trkpt>
      <trkpt lat="48.79379" lon="2.21919">
        <ele>174</ele>
        <time>2015-06-07T07:57:32Z</time>
      </trkpt>
      <trkpt lat="48.79377" lon="2.21922">
        <ele>173</ele>
        <time>2015-06-07T07:57:37Z</time>
      </trkpt>
      <trkpt lat="48.79391" lon="2.21994">
        <ele>172</ele>
        <time>2015-06-07T07:58:07Z</time>
      </trkpt>
      <trkpt lat="48.79416" lon="2.22052">
        <ele>171</ele>
        <time>2015-06-07T07:58:37Z</time>
      </trkpt>
      <trkpt lat="48.7944" lon="2.22118">
        <ele>171</ele>
        <time>2015-06-07T07:59:07Z</time>
      </trkpt>
      <trkpt lat="48.79466" lon="2.22186">
        <ele>166</ele>
        <time>2015-06-07T07:59:38Z</time>
      </trkpt>
      <trkpt lat="48.7949" lon="2.22246">
        <ele>169</ele>
        <time>2015-06-07T08:00:09Z</time>
      </trkpt>
      <trkpt lat="48.7953" lon="2.22279">
        <ele>170</ele>
        <time>2015-06-07T08:00:39Z</time>
      </trkpt>
      <trkpt lat="48.79547" lon="2.22297">
        <ele>169</ele>
        <time>2015-06-07T08:00:52Z</time>
      </trkpt>
      <trkpt lat="48.79547" lon="2.22327">
        <ele>162</ele>
        <time>2015-06-07T08:01:03Z</time>
      </trkpt>
      <trkpt lat="48.79526" lon="2.22388">
        <ele>161</ele>
        <time>2015-06-07T08:01:30Z</time>
      </trkpt>
      <trkpt lat="48.79492" lon="2.22441">
        <ele>162</ele>
        <time>2015-06-07T08:02:00Z</time>
      </trkpt>
      <trkpt lat="48.79471" lon="2.22505">
        <ele>153</ele>
        <time>2015-06-07T08:02:30Z</time>
      </trkpt>
      <trkpt lat="48.7947" lon="2.22507">
        <ele>154</ele>
        <time>2015-06-07T08:02:31Z</time>
      </trkpt>
      <trkpt lat="48.79468" lon="2.22509">
        <ele>154</ele>
        <time>2015-06-07T08:02:33Z</time>
      </trkpt>
      <trkpt lat="48.79466" lon="2.2251">
        <ele>153</ele>
        <time>2015-06-07T08:02:34Z</time>
      </trkpt>
      <trkpt lat="48.79461" lon="2.22505">
        <ele>150</ele>
        <time>2015-06-07T08:02:39Z</time>
      </trkpt>
      <trkpt lat="48.79458" lon="2.22509">
        <ele>147</ele>
        <time>2015-06-07T08:02:49Z</time>
      </trkpt>
      <trkpt lat="48.79457" lon="2.22509">
        <ele>146</ele>
        <time>2015-06-07T08:02:51Z</time>
      </trkpt>
      <trkpt lat="48.79452" lon="2.22507">
        <ele>146</ele>
        <time>2015-06-07T08:02:57Z</time>
      </trkpt>
      <trkpt lat="48.79446" lon="2.22509">
        <ele>146</ele>
        <time>2015-06-07T08:03:06Z</time>
      </trkpt>
      <trkpt lat="48.79438" lon="2.22527">
        <ele>148</ele>
        <time>2015-06-07T08:03:24Z</time>
      </trkpt>
      <trkpt lat="48.79437" lon="2.22537">
        <ele>150</ele>
        <time>2015-06-07T08:03:33Z</time>
      </trkpt>
      <trkpt lat="48.79429" lon="2.22554">
        <ele>151</ele>
        <time>2015-06-07T08:03:47Z</time>
      </trkpt>
      <trkpt lat="48.79428" lon="2.22565">
        <ele>153</ele>
        <time>2015-06-07T08:03:58Z</time>
      </trkpt>
      <trkpt lat="48.79426" lon="2.22566">
        <ele>153</ele>
        <time>2015-06-07T08:04:01Z</time>
      </trkpt>
      <trkpt lat="48.79424" lon="2.2257">
        <ele>154</ele>
        <time>2015-06-07T08:04:05Z</time>
      </trkpt>
      <trkpt lat="48.79424" lon="2.22575">
        <ele>154</ele>
        <time>2015-06-07T08:04:10Z</time>
      </trkpt>
      <trkpt lat="48.79418" lon="2.22584">
        <ele>154</ele>
        <time>2015-06-07T08:04:21Z</time>
      </trkpt>
      <trkpt lat="48.79418" lon="2.22588">
        <ele>155</ele>
        <time>2015-06-07T08:04:24Z</time>
      </trkpt>
      <trkpt lat="48.79435" lon="2.22642">
        <ele>148</ele>
        <time>2015-06-07T08:04:55Z</time>
      </trkpt>
      <trkpt lat="48.79438" lon="2.22648">
        <ele>148</ele>
        <time>2015-06-07T08:04:59Z</time>
      </trkpt>
      <trkpt lat="48.79461" lon="2.22663">
        <ele>151</ele>
        <time>2015-06-07T08:05:18Z</time>
      </trkpt>
      <trkpt lat="48.79513" lon="2.22673">
        <ele>145</ele>
        <time>2015-06-07T08:05:48Z</time>
      </trkpt>
      <trkpt lat="48.79558" lon="2.22682">
        <ele>149</ele>
        <time>2015-06-07T08:06:14Z</time>
      </trkpt>
      <trkpt lat="48.79595" lon="2.22707">
        <ele>147</ele>
        <time>2015-06-07T08:06:41Z</time>
      </trkpt>
      <trkpt lat="48.79597" lon="2.22715">
        <ele>148</ele>
        <time>2015-06-07T08:06:45Z</time>
      </trkpt>
      <trkpt lat="48.79609" lon="2.22728">
        <ele>146</ele>
        <time>2015-06-07T08:06:55Z</time>
      </trkpt>
      <trkpt lat="48.79633" lon="2.2275">
        <ele>133</ele>
        <time>2015-06-07T08:07:10Z</time>
      </trkpt>
      <trkpt lat="48.79634" lon="2.22754">
        <ele>133</ele>
        <time>2015-06-07T08:07:12Z</time>
      </trkpt>
      <trkpt lat="48.79628" lon="2.22784">
        <ele>121</ele>
        <time>2015-06-07T08:07:26Z</time>
      </trkpt>
      <trkpt lat="48.79624" lon="2.2279">
        <ele>120</ele>
        <time>2015-06-07T08:07:30Z</time>
      </trkpt>
      <trkpt lat="48.79613" lon="2.22854">
        <ele>127</ele>
        <time>2015-06-07T08:08:01Z</time>
      </trkpt>
      <trkpt lat="48.79611" lon="2.22874">
        <ele>131</ele>
        <time>2015-06-07T08:08:09Z</time>
      </trkpt>
      <trkpt lat="48.79608" lon="2.2288">
        <ele>132</ele>
        <time>2015-06-07T08:08:12Z</time>
      </trkpt>
      <trkpt lat="48.79594" lon="2.22952">
        <ele>137</ele>
        <time>2015-06-07T08:08:43Z</time>
      </trkpt>
      <trkpt lat="48.79591" lon="2.2296">
        <ele>139</ele>
        <time>2015-06-07T08:08:47Z</time>
      </trkpt>
      <trkpt lat="48.79589" lon="2.22968">
        <ele>142</ele>
        <time>2015-06-07T08:08:51Z</time>
      </trkpt>
      <trkpt lat="48.79583" lon="2.22989">
        <ele>147</ele>
        <time>2015-06-07T08:09:02Z</time>
      </trkpt>
      <trkpt lat="48.79566" lon="2.23062">
        <ele>145</ele>
        <time>2015-06-07T08:09:32Z</time>
      </trkpt>
      <trkpt lat="48.79553" lon="2.231">
        <ele>145</ele>
        <time>2015-06-07T08:09:50Z</time>
      </trkpt>
      <trkpt lat="48.79541" lon="2.23167">
        <ele>148</ele>
        <time>2015-06-07T08:10:22Z</time>
      </trkpt>
      <trkpt lat="48.79528" lon="2.23245">
        <ele>132</ele>
        <time>2015-06-07T08:10:54Z</time>
      </trkpt>
      <trkpt lat="48.79516" lon="2.23312">
        <ele>128</ele>
        <time>2015-06-07T08:11:25Z</time>
      </trkpt>
      <trkpt lat="48.79504" lon="2.23376">
        <ele>127</ele>
        <time>2015-06-07T08:11:55Z</time>
      </trkpt>
      <trkpt lat="48.79496" lon="2.2343">
        <ele>124</ele>
        <time>2015-06-07T08:12:17Z</time>
      </trkpt>
      <trkpt lat="48.79487" lon="2.23488">
        <ele>121</ele>
        <time>2015-06-07T08:12:47Z</time>
      </trkpt>
      <trkpt lat="48.79485" lon="2.235">
        <ele>120</ele>
        <time>2015-06-07T08:12:53Z</time>
      </trkpt>
      <trkpt lat="48.79483" lon="2.23506">
        <ele>122</ele>
        <time>2015-06-07T08:12:57Z</time>
      </trkpt>
      <trkpt lat="48.79476" lon="2.23579">
        <ele>126</ele>
        <time>2015-06-07T08:13:28Z</time>
      </trkpt>
      <trkpt lat="48.7948" lon="2.23652">
        <ele>128</ele>
        <time>2015-06-07T08:14:00Z</time>
      </trkpt>
      <trkpt lat="48.79479" lon="2.23733">
        <ele>123</ele>
        <time>2015-06-07T08:14:31Z</time>
      </trkpt>
      <trkpt lat="48.79482" lon="2.23792">
        <ele>123</ele>
        <time>2015-06-07T08:14:56Z</time>
      </trkpt>
      <trkpt lat="48.79483" lon="2.23799">
        <ele>125</ele>
        <time>2015-06-07T08:15:00Z</time>
      </trkpt>
      <trkpt lat="48.79489" lon="2.23852">
        <ele>131</ele>
        <time>2015-06-07T08:15:25Z</time>
      </trkpt>
      <trkpt lat="48.79504" lon="2.23914">
        <ele>128</ele>
        <time>2015-06-07T08:15:55Z</time>
      </trkpt>
      <trkpt lat="48.79522" lon="2.2398">
        <ele>128</ele>
        <time>2015-06-07T08:16:25Z</time>
      </trkpt>
      <trkpt lat="48.79543" lon="2.24054">
        <ele>117</ele>
        <time>2015-06-07T08:16:55Z</time>
      </trkpt>
      <trkpt lat="48.79568" lon="2.24105">
        <ele>123</ele>
        <time>2015-06-07T08:17:25Z</time>
      </trkpt>
      <trkpt lat="48.79605" lon="2.24123">
        <ele>131</ele>
        <time>2015-06-07T08:17:56Z</time>
      </trkpt>
      <trkpt lat="48.79643" lon="2.24123">
        <ele>142</ele>
        <time>2015-06-07T08:18:26Z</time>
      </trkpt>
      <trkpt lat="48.79687" lon="2.24133">
        <ele>147</ele>
        <time>2015-06-07T08:18:56Z</time>
      </trkpt>
      <trkpt lat="48.79735" lon="2.24141">
        <ele>153</ele>
        <time>2015-06-07T08:19:27Z</time>
      </trkpt>
      <trkpt lat="48.7977" lon="2.24166">
        <ele>155</ele>
        <time>2015-06-07T08:19:57Z</time>
      </trkpt>
      <trkpt lat="48.79817" lon="2.24197">
        <ele>155</ele>
        <time>2015-06-07T08:20:27Z</time>
      </trkpt>
      <trkpt lat="48.79834" lon="2.24198">
        <ele>157</ele>
        <time>2015-06-07T08:20:38Z</time>
      </trkpt>
      <trkpt lat="48.79899" lon="2.24205">
        <ele>161</ele>
        <time>2015-06-07T08:21:08Z</time>
      </trkpt>
      <trkpt lat="48.79947" lon="2.24193">
        <ele>159</ele>
        <time>2015-06-07T08:21:38Z</time>
      </trkpt>
      <trkpt lat="48.79986" lon="2.24221">
        <ele>152</ele>
        <time>2015-06-07T08:22:09Z</time>
      </trkpt>
      <trkpt lat="48.79993" lon="2.24233">
        <ele>151</ele>
        <time>2015-06-07T08:22:17Z</time>
      </trkpt>
      <trkpt lat="48.80009" lon="2.24289">
        <ele>144</ele>
        <time>2015-06-07T08:22:48Z</time>
      </trkpt>
      <trkpt lat="48.8001" lon="2.24293">
        <ele>144</ele>
        <time>2015-06-07T08:22:50Z</time>
      </trkpt>
      <trkpt lat="48.80016" lon="2.24302">
        <ele>145</ele>
        <time>2015-06-07T08:22:56Z</time>
      </trkpt>
      <trkpt lat="48.80017" lon="2.24305">
        <ele>145</ele>
        <time>2015-06-07T08:22:58Z</time>
      </trkpt>
      <trkpt lat="48.8005" lon="2.24334">
        <ele>152</ele>
        <time>2015-06-07T08:23:28Z</time>
      </trkpt>
      <trkpt lat="48.801" lon="2.24375">
        <ele>154</ele>
        <time>2015-06-07T08:23:58Z</time>
      </trkpt>
      <trkpt lat="48.80143" lon="2.24403">
        <ele>160</ele>
        <time>2015-06-07T08:24:29Z</time>
      </trkpt>
      <trkpt lat="48.80177" lon="2.24436">
        <ele>162</ele>
        <time>2015-06-07T08:24:59Z</time>
      </trkpt>
      <trkpt lat="48.80183" lon="2.2444">
        <ele>161</ele>
        <time>2015-06-07T08:25:10Z</time>
      </trkpt>
      <trkpt lat="48.80184" lon="2.24443">
        <ele>161</ele>
        <time>2015-06-07T08:25:13Z</time>
      </trkpt>
      <trkpt lat="48.80189" lon="2.24448">
        <ele>159</ele>
        <time>2015-06-07T08:25:17Z</time>
      </trkpt>
      <trkpt lat="48.80189" lon="2.24451">
        <ele>158</ele>
        <time>2015-06-07T08:25:19Z</time>
      </trkpt>
      <trkpt lat="48.80188" lon="2.24454">
        <ele>157</ele>
        <time>2015-06-07T08:25:23Z</time>
      </trkpt>
      <trkpt lat="48.80187" lon="2.24456">
        <ele>157</ele>
        <time>2015-06-07T08:25:25Z</time>
      </trkpt>
      <trkpt lat="48.80183" lon="2.24466">
        <ele>156</ele>
        <time>2015-06-07T08:25:31Z</time>
      </trkpt>
      <trkpt lat="48.80183" lon="2.24475">
        <ele>158</ele>
        <time>2015-06-07T08:25:37Z</time>
      </trkpt>
      <trkpt lat="48.80185" lon="2.2448">
        <ele>157</ele>
        <time>2015-06-07T08:25:41Z</time>
      </trkpt>
      <trkpt lat="48.80187" lon="2.24483">
        <ele>159</ele>
        <time>2015-06-07T08:25:44Z</time>
      </trkpt>
      <trkpt lat="48.80188" lon="2.24485">
        <ele>160</ele>
        <time>2015-06-07T08:25:47Z</time>
      </trkpt>
      <trkpt lat="48.80192" lon="2.24497">
        <ele>163</ele>
        <time>2015-06-07T08:25:54Z</time>
      </trkpt>
      <trkpt lat="48.80194" lon="2.24506">
        <ele>163</ele>
        <time>2015-06-07T08:25:58Z</time>
      </trkpt>
      <trkpt lat="48.80186" lon="2.24543">
        <ele>164</ele>
        <time>2015-06-07T08:26:16Z</time>
      </trkpt>
      <trkpt lat="48.80188" lon="2.2455">
        <ele>162</ele>
        <time>2015-06-07T08:26:20Z</time>
      </trkpt>
      <trkpt lat="48.80186" lon="2.24553">
        <ele>162</ele>
        <time>2015-06-07T08:26:23Z</time>
      </trkpt>
      <trkpt lat="48.80142" lon="2.24549">
        <ele>168</ele>
        <time>2015-06-07T08:26:54Z</time>
      </trkpt>
      <trkpt lat="48.8014" lon="2.24548">
        <ele>169</ele>
        <time>2015-06-07T08:26:56Z</time>
      </trkpt>
      <trkpt lat="48.80089" lon="2.24543">
        <ele>172</ele>
        <time>2015-06-07T08:27:26Z</time>
      </trkpt>
      <trkpt lat="48.80041" lon="2.24535">
        <ele>171</ele>
        <time>2015-06-07T08:27:56Z</time>
      </trkpt>
      <trkpt lat="48.79994" lon="2.2453">
        <ele>177</ele>
        <time>2015-06-07T08:28:27Z</time>
      </trkpt>
      <trkpt lat="48.79939" lon="2.24532">
        <ele>181</ele>
        <time>2015-06-07T08:28:58Z</time>
      </trkpt>
      <trkpt lat="48.79888" lon="2.24501">
        <ele>170</ele>
        <time>2015-06-07T08:29:29Z</time>
      </trkpt>
      <trkpt lat="48.79845" lon="2.24512">
        <ele>175</ele>
        <time>2015-06-07T08:29:59Z</time>
      </trkpt>
      <trkpt lat="48.798" lon="2.24561">
        <ele>177</ele>
        <time>2015-06-07T08:30:29Z</time>
      </trkpt>
      <trkpt lat="48.79761" lon="2.24617">
        <ele>172</ele>
        <time>2015-06-07T08:30:59Z</time>
      </trkpt>
      <trkpt lat="48.79729" lon="2.24669">
        <ele>173</ele>
        <time>2015-06-07T08:31:29Z</time>
      </trkpt>
      <trkpt lat="48.79691" lon="2.24728">
        <ele>168</ele>
        <time>2015-06-07T08:32:00Z</time>
      </trkpt>
      <trkpt lat="48.79668" lon="2.24768">
        <ele>171</ele>
        <time>2015-06-07T08:32:22Z</time>
      </trkpt>
      <trkpt lat="48.79636" lon="2.24829">
        <ele>171</ele>
        <time>2015-06-07T08:32:52Z</time>
      </trkpt>
      <trkpt lat="48.79627" lon="2.2485">
        <ele>171</ele>
        <time>2015-06-07T08:33:04Z</time>
      </trkpt>
      <trkpt lat="48.79625" lon="2.24851">
        <ele>170</ele>
        <time>2015-06-07T08:33:07Z</time>
      </trkpt>
      <trkpt lat="48.79621" lon="2.24854">
        <ele>171</ele>
        <time>2015-06-07T08:33:26Z</time>
      </trkpt>
      <trkpt lat="48.79619" lon="2.24857">
        <ele>177</ele>
        <time>2015-06-07T08:34:43Z</time>
      </trkpt>
      <trkpt lat="48.79616" lon="2.24855">
        <ele>180</ele>
        <time>2015-06-07T08:37:08Z</time>
      </trkpt>
      <trkpt lat="48.79615" lon="2.24857">
        <ele>180</ele>
        <time>2015-06-07T08:37:23Z</time>
      </trkpt>
      <trkpt lat="48.7959" lon="2.24917">
        <ele>171</ele>
        <time>2015-06-07T08:37:54Z</time>
      </trkpt>
      <trkpt lat="48.79561" lon="2.24946">
        <ele>176</ele>
        <time>2015-06-07T08:38:24Z</time>
      </trkpt>
      <trkpt lat="48.79558" lon="2.24949">
        <ele>177</ele>
        <time>2015-06-07T08:38:26Z</time>
      </trkpt>
      <trkpt lat="48.79524" lon="2.24991">
        <ele>183</ele>
        <time>2015-06-07T08:38:56Z</time>
      </trkpt>
      <trkpt lat="48.79493" lon="2.25045">
        <ele>186</ele>
        <time>2015-06-07T08:39:26Z</time>
      </trkpt>
      <trkpt lat="48.79463" lon="2.2508">
        <ele>181</ele>
        <time>2015-06-07T08:39:48Z</time>
      </trkpt>
      <trkpt lat="48.7942" lon="2.25112">
        <ele>180</ele>
        <time>2015-06-07T08:40:18Z</time>
      </trkpt>
      <trkpt lat="48.79373" lon="2.25125">
        <ele>177</ele>
        <time>2015-06-07T08:40:49Z</time>
      </trkpt>
      <trkpt lat="48.79368" lon="2.25127">
        <ele>174</ele>
        <time>2015-06-07T08:40:53Z</time>
      </trkpt>
      <trkpt lat="48.79366" lon="2.25128">
        <ele>175</ele>
        <time>2015-06-07T08:40:55Z</time>
      </trkpt>
      <trkpt lat="48.79363" lon="2.25129">
        <ele>175</ele>
        <time>2015-06-07T08:40:59Z</time>
      </trkpt>
      <trkpt lat="48.7936" lon="2.25131">
        <ele>175</ele>
        <time>2015-06-07T08:41:01Z</time>
      </trkpt>
      <trkpt lat="48.79302" lon="2.25138">
        <ele>165</ele>
        <time>2015-06-07T08:41:31Z</time>
      </trkpt>
      <trkpt lat="48.79258" lon="2.25145">
        <ele>170</ele>
        <time>2015-06-07T08:42:02Z</time>
      </trkpt>
      <trkpt lat="48.79218" lon="2.25092">
        <ele>152</ele>
        <time>2015-06-07T08:42:32Z</time>
      </trkpt>
      <trkpt lat="48.79205" lon="2.25089">
        <ele>153</ele>
        <time>2015-06-07T08:42:41Z</time>
      </trkpt>
      <trkpt lat="48.79178" lon="2.25069">
        <ele>153</ele>
        <time>2015-06-07T08:43:01Z</time>
      </trkpt>
      <trkpt lat="48.79175" lon="2.25068">
        <ele>156</ele>
        <time>2015-06-07T08:43:03Z</time>
      </trkpt>
      <trkpt lat="48.79143" lon="2.2504">
        <ele>158</ele>
        <time>2015-06-07T08:43:27Z</time>
      </trkpt>
      <trkpt lat="48.79142" lon="2.25038">
        <ele>158</ele>
        <time>2015-06-07T08:43:28Z</time>
      </trkpt>
      <trkpt lat="48.79141" lon="2.25036">
        <ele>157</ele>
        <time>2015-06-07T08:43:29Z</time>
      </trkpt>
      <trkpt lat="48.79126" lon="2.2499">
        <ele>157</ele>
        <time>2015-06-07T08:43:49Z</time>
      </trkpt>
      <trkpt lat="48.79125" lon="2.24976">
        <ele>158</ele>
        <time>2015-06-07T08:43:58Z</time>
      </trkpt>
      <trkpt lat="48.79128" lon="2.24963">
        <ele>163</ele>
        <time>2015-06-07T08:44:04Z</time>
      </trkpt>
      <trkpt lat="48.79127" lon="2.24919">
        <ele>170</ele>
        <time>2015-06-07T08:44:25Z</time>
      </trkpt>
      <trkpt lat="48.79127" lon="2.24914">
        <ele>172</ele>
        <time>2015-06-07T08:44:27Z</time>
      </trkpt>
      <trkpt lat="48.79128" lon="2.24843">
        <ele>166</ele>
        <time>2015-06-07T08:44:57Z</time>
      </trkpt>
      <trkpt lat="48.79127" lon="2.24758">
        <ele>170</ele>
        <time>2015-06-07T08:45:27Z</time>
      </trkpt>
      <trkpt lat="48.79121" lon="2.24682">
        <ele>164</ele>
        <time>2015-06-07T08:45:57Z</time>
      </trkpt>
      <trkpt lat="48.79104" lon="2.24603">
        <ele>151</ele>
        <time>2015-06-07T08:46:29Z</time>
      </trkpt>
      <trkpt lat="48.791" lon="2.24589">
        <ele>153</ele>
        <time>2015-06-07T08:46:36Z</time>
      </trkpt>
      <trkpt lat="48.79097" lon="2.24575">
        <ele>160</ele>
        <time>2015-06-07T08:46:42Z</time>
      </trkpt>
      <trkpt lat="48.7908" lon="2.24502">
        <ele>169</ele>
        <time>2015-06-07T08:47:12Z</time>
      </trkpt>
      <trkpt lat="48.79067" lon="2.2444">
        <ele>168</ele>
        <time>2015-06-07T08:47:42Z</time>
      </trkpt>
      <trkpt lat="48.79064" lon="2.24421">
        <ele>171</ele>
        <time>2015-06-07T08:47:52Z</time>
      </trkpt>
      <trkpt lat="48.79048" lon="2.24348">
        <ele>168</ele>
        <time>2015-06-07T08:48:22Z</time>
      </trkpt>
      <trkpt lat="48.79025" lon="2.24277">
        <ele>162</ele>
        <time>2015-06-07T08:48:51Z</time>
      </trkpt>
      <trkpt lat="48.79006" lon="2.24225">
        <ele>168</ele>
        <time>2015-06-07T08:49:15Z</time>
      </trkpt>
      <trkpt lat="48.79007" lon="2.2422">
        <ele>169</ele>
        <time>2015-06-07T08:49:17Z</time>
      </trkpt>
      <trkpt lat="48.79001" lon="2.242">
        <ele>166</ele>
        <time>2015-06-07T08:49:26Z</time>
      </trkpt>
      <trkpt lat="48.78999" lon="2.24192">
        <ele>166</ele>
        <time>2015-06-07T08:49:30Z</time>
      </trkpt>
      <trkpt lat="48.78998" lon="2.2419">
        <ele>168</ele>
        <time>2015-06-07T08:49:31Z</time>
      </trkpt>
      <trkpt lat="48.78996" lon="2.24179">
        <ele>169</ele>
        <time>2015-06-07T08:49:36Z</time>
      </trkpt>
      <trkpt lat="48.78984" lon="2.24105">
        <ele>173</ele>
        <time>2015-06-07T08:50:06Z</time>
      </trkpt>
      <trkpt lat="48.78973" lon="2.24034">
        <ele>166</ele>
        <time>2015-06-07T08:50:37Z</time>
      </trkpt>
      <trkpt lat="48.78959" lon="2.2396">
        <ele>161</ele>
        <time>2015-06-07T08:51:08Z</time>
      </trkpt>
      <trkpt lat="48.78949" lon="2.23891">
        <ele>166</ele>
        <time>2015-06-07T08:51:35Z</time>
      </trkpt>
      <trkpt lat="48.78948" lon="2.23872">
        <ele>173</ele>
        <time>2015-06-07T08:51:43Z</time>
      </trkpt>
      <trkpt lat="48.78938" lon="2.23799">
        <ele>179</ele>
        <time>2015-06-07T08:52:13Z</time>
      </trkpt>
      <trkpt lat="48.78915" lon="2.23717">
        <ele>171</ele>
        <time>2015-06-07T08:52:43Z</time>
      </trkpt>
      <trkpt lat="48.78905" lon="2.23648">
        <ele>161</ele>
        <time>2015-06-07T08:53:12Z</time>
      </trkpt>
      <trkpt lat="48.78905" lon="2.23645">
        <ele>161</ele>
        <time>2015-06-07T08:53:19Z</time>
      </trkpt>
      <trkpt lat="48.78895" lon="2.23613">
        <ele>161</ele>
        <time>2015-06-07T08:53:37Z</time>
      </trkpt>
      <trkpt lat="48.78898" lon="2.23561">
        <ele>168</ele>
        <time>2015-06-07T08:54:08Z</time>
      </trkpt>
      <trkpt lat="48.78897" lon="2.23557">
        <ele>169</ele>
        <time>2015-06-07T08:54:10Z</time>
      </trkpt>
      <trkpt lat="48.78905" lon="2.23485">
        <ele>158</ele>
        <time>2015-06-07T08:54:40Z</time>
      </trkpt>
      <trkpt lat="48.78905" lon="2.23481">
        <ele>159</ele>
        <time>2015-06-07T08:54:42Z</time>
      </trkpt>
      <trkpt lat="48.7892" lon="2.23423">
        <ele>155</ele>
        <time>2015-06-07T08:55:08Z</time>
      </trkpt>
      <trkpt lat="48.78919" lon="2.23417">
        <ele>158</ele>
        <time>2015-06-07T08:55:11Z</time>
      </trkpt>
      <trkpt lat="48.78919" lon="2.23412">
        <ele>158</ele>
        <time>2015-06-07T08:55:13Z</time>
      </trkpt>
      <trkpt lat="48.78923" lon="2.23401">
        <ele>159</ele>
        <time>2015-06-07T08:55:18Z</time>
      </trkpt>
      <trkpt lat="48.78938" lon="2.23336">
        <ele>163</ele>
        <time>2015-06-07T08:55:48Z</time>
      </trkpt>
      <trkpt lat="48.78952" lon="2.23272">
        <ele>164</ele>
        <time>2015-06-07T08:56:18Z</time>
      </trkpt>
      <trkpt lat="48.78959" lon="2.2324">
        <ele>162</ele>
        <time>2015-06-07T08:56:31Z</time>
      </trkpt>
      <trkpt lat="48.78969" lon="2.23228">
        <ele>163</ele>
        <time>2015-06-07T08:56:40Z</time>
      </trkpt>
      <trkpt lat="48.78971" lon="2.23224">
        <ele>162</ele>
        <time>2015-06-07T08:56:42Z</time>
      </trkpt>
      <trkpt lat="48.78973" lon="2.23221">
        <ele>163</ele>
        <time>2015-06-07T08:56:44Z</time>
      </trkpt>
      <trkpt lat="48.78975" lon="2.23218">
        <ele>165</ele>
        <time>2015-06-07T08:56:46Z</time>
      </trkpt>
      <trkpt lat="48.78982" lon="2.23193">
        <ele>169</ele>
        <time>2015-06-07T08:57:01Z</time>
      </trkpt>
      <trkpt lat="48.79002" lon="2.23137">
        <ele>175</ele>
        <time>2015-06-07T08:57:31Z</time>
      </trkpt>
      <trkpt lat="48.79017" lon="2.2308">
        <ele>169</ele>
        <time>2015-06-07T08:58:01Z</time>
      </trkpt>
      <trkpt lat="48.7902" lon="2.23073">
        <ele>168</ele>
        <time>2015-06-07T08:58:05Z</time>
      </trkpt>
      <trkpt lat="48.7902" lon="2.23069">
        <ele>167</ele>
        <time>2015-06-07T08:58:07Z</time>
      </trkpt>
      <trkpt lat="48.79039" lon="2.23015">
        <ele>172</ele>
        <time>2015-06-07T08:58:38Z</time>
      </trkpt>
      <trkpt lat="48.79038" lon="2.23011">
        <ele>172</ele>
        <time>2015-06-07T08:58:40Z</time>
      </trkpt>
      <trkpt lat="48.79039" lon="2.22978">
        <ele>174</ele>
        <time>2015-06-07T08:58:56Z</time>
      </trkpt>
      <trkpt lat="48.79046" lon="2.22954">
        <ele>171</ele>
        <time>2015-06-07T08:59:06Z</time>
      </trkpt>
      <trkpt lat="48.79065" lon="2.22907">
        <ele>178</ele>
        <time>2015-06-07T08:59:29Z</time>
      </trkpt>
      <trkpt lat="48.79062" lon="2.22897">
        <ele>179</ele>
        <time>2015-06-07T08:59:33Z</time>
      </trkpt>
      <trkpt lat="48.79049" lon="2.2286">
        <ele>177</ele>
        <time>2015-06-07T08:59:53Z</time>
      </trkpt>
      <trkpt lat="48.79054" lon="2.22806">
        <ele>177</ele>
        <time>2015-06-07T09:00:18Z</time>
      </trkpt>
      <trkpt lat="48.79055" lon="2.22724">
        <ele>174</ele>
        <time>2015-06-07T09:00:47Z</time>
      </trkpt>
      <trkpt lat="48.79058" lon="2.22713">
        <ele>175</ele>
        <time>2015-06-07T09:00:52Z</time>
      </trkpt>
      <trkpt lat="48.79064" lon="2.22668">
        <ele>174</ele>
        <time>2015-06-07T09:01:10Z</time>
      </trkpt>
      <trkpt lat="48.79066" lon="2.22596">
        <ele>171</ele>
        <time>2015-06-07T09:01:40Z</time>
      </trkpt>
      <trkpt lat="48.79078" lon="2.2252">
        <ele>167</ele>
        <time>2015-06-07T09:02:10Z</time>
      </trkpt>
      <trkpt lat="48.79106" lon="2.22464">
        <ele>174</ele>
        <time>2015-06-07T09:02:40Z</time>
      </trkpt>
      <trkpt lat="48.79109" lon="2.22458">
        <ele>176</ele>
        <time>2015-06-07T09:02:44Z</time>
      </trkpt>
      <trkpt lat="48.79141" lon="2.224">
        <ele>172</ele>
        <time>2015-06-07T09:03:14Z</time>
      </trkpt>
      <trkpt lat="48.79174" lon="2.22342">
        <ele>169</ele>
        <time>2015-06-07T09:03:44Z</time>
      </trkpt>
      <trkpt lat="48.79208" lon="2.22282">
        <ele>169</ele>
        <time>2015-06-07T09:04:14Z</time>
      </trkpt>
      <trkpt lat="48.7924" lon="2.22223">
        <ele>171</ele>
        <time>2015-06-07T09:04:45Z</time>
      </trkpt>
      <trkpt lat="48.79279" lon="2.22162">
        <ele>167</ele>
        <time>2015-06-07T09:05:16Z</time>
      </trkpt>
      <trkpt lat="48.79293" lon="2.22137">
        <ele>169</ele>
        <time>2015-06-07T09:05:31Z</time>
      </trkpt>
      <trkpt lat="48.79317" lon="2.22084">
        <ele>172</ele>
        <time>2015-06-07T09:06:01Z</time>
      </trkpt>
      <trkpt lat="48.79354" lon="2.22025">
        <ele>177</ele>
        <time>2015-06-07T09:06:32Z</time>
      </trkpt>
      <trkpt lat="48.79371" lon="2.21951">
        <ele>174</ele>
        <time>2015-06-07T09:07:02Z</time>
      </trkpt>
      <trkpt lat="48.79374" lon="2.21928">
        <ele>174</ele>
        <time>2015-06-07T09:07:13Z</time>
      </trkpt>
      <trkpt lat="48.79373" lon="2.21921">
        <ele>173</ele>
        <time>2015-06-07T09:07:17Z</time>
      </trkpt>
      <trkpt lat="48.79374" lon="2.21916">
        <ele>173</ele>
        <time>2015-06-07T09:07:21Z</time>
      </trkpt>
      <trkpt lat="48.79376" lon="2.21921">
        <ele>172</ele>
        <time>2015-06-07T09:07:29Z</time>
      </trkpt>
      <trkpt lat="48.79375" lon="2.21919">
        <ele>173</ele>
        <time>2015-06-07T09:07:40Z</time>
      </trkpt>
      <trkpt lat="48.79374" lon="2.21916">
        <ele>176</ele>
        <time>2015-06-07T09:07:43Z</time>
      </trkpt>
      <trkpt lat="48.79374" lon="2.21914">
        <ele>177</ele>
        <time>2015-06-07T09:07:45Z</time>
      </trkpt>
      <trkpt lat="48.79362" lon="2.21856">
        <ele>180</ele>
        <time>2015-06-07T09:08:16Z</time>
      </trkpt>
      <trkpt lat="48.79362" lon="2.21854">
        <ele>180</ele>
        <time>2015-06-07T09:08:18Z</time>
      </trkpt>
      <trkpt lat="48.79361" lon="2.21852">
        <ele>179</ele>
        <time>2015-06-07T09:08:20Z</time>
      </trkpt>
      <trkpt lat="48.79362" lon="2.21849">
        <ele>179</ele>
        <time>2015-06-07T09:08:23Z</time>
      </trkpt>
      <trkpt lat="48.79366" lon="2.21846">
        <ele>179</ele>
        <time>2015-06-07T09:08:27Z</time>
      </trkpt>
      <trkpt lat="48.79382" lon="2.21786">
        <ele>176</ele>
        <time>2015-06-07T09:08:57Z</time>
      </trkpt>
      <trkpt lat="48.79385" lon="2.21722">
        <ele>180</ele>
        <time>2015-06-07T09:09:27Z</time>
      </trkpt>
      <trkpt lat="48.79386" lon="2.21677">
        <ele>180</ele>
        <time>2015-06-07T09:09:46Z</time>
      </trkpt>
      <trkpt lat="48.79385" lon="2.21598">
        <ele>182</ele>
        <time>2015-06-07T09:10:17Z</time>
      </trkpt>
      <trkpt lat="48.79383" lon="2.21561">
        <ele>183</ele>
        <time>2015-06-07T09:10:31Z</time>
      </trkpt>
      <trkpt lat="48.79382" lon="2.21536">
        <ele>188</ele>
        <time>2015-06-07T09:10:43Z</time>
      </trkpt>
      <trkpt lat="48.79383" lon="2.21493">
        <ele>200</ele>
        <time>2015-06-07T09:11:01Z</time>
      </trkpt>
      <trkpt lat="48.79382" lon="2.21421">
        <ele>199</ele>
        <time>2015-06-07T09:11:32Z</time>
      </trkpt>
      <trkpt lat="48.79381" lon="2.214">
        <ele>203</ele>
        <time>2015-06-07T09:11:41Z</time>
      </trkpt>
      <trkpt lat="48.79381" lon="2.21327">
        <ele>197</ele>
        <time>2015-06-07T09:12:12Z</time>
      </trkpt>
      <trkpt lat="48.7938" lon="2.21257">
        <ele>193</ele>
        <time>2015-06-07T09:12:42Z</time>
      </trkpt>
      <trkpt lat="48.79381" lon="2.21229">
        <ele>195</ele>
        <time>2015-06-07T09:12:53Z</time>
      </trkpt>
      <trkpt lat="48.79384" lon="2.21159">
        <ele>198</ele>
        <time>2015-06-07T09:13:24Z</time>
      </trkpt>
      <trkpt lat="48.7938" lon="2.21074">
        <ele>197</ele>
        <time>2015-06-07T09:13:55Z</time>
      </trkpt>
      <trkpt lat="48.79384" lon="2.21">
        <ele>188</ele>
        <time>2015-06-07T09:14:25Z</time>
      </trkpt>
      <trkpt lat="48.79401" lon="2.20936">
        <ele>177</ele>
        <time>2015-06-07T09:14:55Z</time>
      </trkpt>
      <trkpt lat="48.79424" lon="2.20876">
        <ele>178</ele>
        <time>2015-06-07T09:15:25Z</time>
      </trkpt>
      <trkpt lat="48.79444" lon="2.20805">
        <ele>171</ele>
        <time>2015-06-07T09:15:55Z</time>
      </trkpt>
      <trkpt lat="48.79467" lon="2.20751">
        <ele>176</ele>
        <time>2015-06-07T09:16:25Z</time>
      </trkpt>
      <trkpt lat="48.79489" lon="2.20691">
        <ele>186</ele>
        <time>2015-06-07T09:16:55Z</time>
      </trkpt>
      <trkpt lat="48.79489" lon="2.20685">
        <ele>188</ele>
        <time>2015-06-07T09:16:58Z</time>
      </trkpt>
      <trkpt lat="48.79494" lon="2.20643">
        <ele>188</ele>
        <time>2015-06-07T09:17:17Z</time>
      </trkpt>
      <trkpt lat="48.79499" lon="2.20629">
        <ele>187</ele>
        <time>2015-06-07T09:17:25Z</time>
      </trkpt>
      <trkpt lat="48.79511" lon="2.20554">
        <ele>175</ele>
        <time>2015-06-07T09:17:55Z</time>
      </trkpt>
      <trkpt lat="48.79545" lon="2.20498">
        <ele>174</ele>
        <time>2015-06-07T09:18:27Z</time>
      </trkpt>
      <trkpt lat="48.79579" lon="2.20444">
        <ele>174</ele>
        <time>2015-06-07T09:18:58Z</time>
      </trkpt>
      <trkpt lat="48.79584" lon="2.2044">
        <ele>174</ele>
        <time>2015-06-07T09:19:02Z</time>
      </trkpt>
      <trkpt lat="48.79605" lon="2.20446">
        <ele>174</ele>
        <time>2015-06-07T09:19:55Z</time>
      </trkpt>
      <trkpt lat="48.79604" lon="2.20443">
        <ele>174</ele>
        <time>2015-06-07T09:19:59Z</time>
      </trkpt>
      <trkpt lat="48.79605" lon="2.20438">
        <ele>174</ele>
        <time>2015-06-07T09:20:04Z</time>
      </trkpt>
      <trkpt lat="48.79603" lon="2.20434">
        <ele>175</ele>
        <time>2015-06-07T09:20:08Z</time>
      </trkpt>
      <trkpt lat="48.79604" lon="2.20414">
        <ele>177</ele>
        <time>2015-06-07T09:20:26Z</time>
      </trkpt>
      <trkpt lat="48.79587" lon="2.20358">
        <ele>171</ele>
        <time>2015-06-07T09:20:58Z</time>
      </trkpt>
      <trkpt lat="48.79558" lon="2.20293">
        <ele>166</ele>
        <time>2015-06-07T09:21:30Z</time>
      </trkpt>
      <trkpt lat="48.79557" lon="2.20289">
        <ele>167</ele>
        <time>2015-06-07T09:21:33Z</time>
      </trkpt>
      <trkpt lat="48.79537" lon="2.20235">
        <ele>159</ele>
        <time>2015-06-07T09:22:04Z</time>
      </trkpt>
      <trkpt lat="48.79513" lon="2.20188">
        <ele>151</ele>
        <time>2015-06-07T09:22:34Z</time>
      </trkpt>
      <trkpt lat="48.79479" lon="2.20151">
        <ele>147</ele>
        <time>2015-06-07T09:23:04Z</time>
      </trkpt>
      <trkpt lat="48.79434" lon="2.2013">
        <ele>147</ele>
        <time>2015-06-07T09:23:35Z</time>
      </trkpt>
      <trkpt lat="48.79403" lon="2.20085">
        <ele>154</ele>
        <time>2015-06-07T09:24:05Z</time>
      </trkpt>
      <trkpt lat="48.79399" lon="2.20077">
        <ele>157</ele>
        <time>2015-06-07T09:24:10Z</time>
      </trkpt>
      <trkpt lat="48.79377" lon="2.20055">
        <ele>147</ele>
        <time>2015-06-07T09:24:24Z</time>
      </trkpt>
      <trkpt lat="48.7933" lon="2.20041">
        <ele>142</ele>
        <time>2015-06-07T09:24:55Z</time>
      </trkpt>
      <trkpt lat="48.79282" lon="2.20036">
        <ele>142</ele>
        <time>2015-06-07T09:25:25Z</time>
      </trkpt>
      <trkpt lat="48.79239" lon="2.20034">
        <ele>147</ele>
        <time>2015-06-07T09:25:56Z</time>
      </trkpt>
      <trkpt lat="48.79221" lon="2.20033">
        <ele>147</ele>
        <time>2015-06-07T09:26:33Z</time>
      </trkpt>
      <trkpt lat="48.79221" lon="2.2003">
        <ele>147</ele>
        <time>2015-06-07T09:26:39Z</time>
      </trkpt>
      <trkpt lat="48.79217" lon="2.20027">
        <ele>144</ele>
        <time>2015-06-07T09:26:47Z</time>
      </trkpt>
      <trkpt lat="48.79217" lon="2.20025">
        <ele>144</ele>
        <time>2015-06-07T09:27:06Z</time>
      </trkpt>
      <trkpt lat="48.79218" lon="2.20022">
        <ele>141</ele>
        <time>2015-06-07T09:28:23Z</time>
      </trkpt>
      <trkpt lat="48.79218" lon="2.20018">
        <ele>141</ele>
        <time>2015-06-07T09:28:26Z</time>
      </trkpt>
      <trkpt lat="48.79218" lon="2.20011">
        <ele>142</ele>
        <time>2015-06-07T09:28:31Z</time>
      </trkpt>
      <trkpt lat="48.79219" lon="2.20008">
        <ele>142</ele>
        <time>2015-06-07T09:28:33Z</time>
      </trkpt>
      <trkpt lat="48.79225" lon="2.19966">
        <ele>143</ele>
        <time>2015-06-07T09:29:01Z</time>
      </trkpt>
      <trkpt lat="48.79224" lon="2.19959">
        <ele>142</ele>
        <time>2015-06-07T09:29:05Z</time>
      </trkpt>
      <trkpt lat="48.79227" lon="2.19929">
        <ele>138</ele>
        <time>2015-06-07T09:29:21Z</time>
      </trkpt>
      <trkpt lat="48.79233" lon="2.19914">
        <ele>148</ele>
        <time>2015-06-07T09:29:29Z</time>
      </trkpt>
      <trkpt lat="48.79236" lon="2.19907">
        <ele>147</ele>
        <time>2015-06-07T09:29:33Z</time>
      </trkpt>
      <trkpt lat="48.7925" lon="2.19826">
        <ele>140</ele>
        <time>2015-06-07T09:30:03Z</time>
      </trkpt>
      <trkpt lat="48.79251" lon="2.19822">
        <ele>142</ele>
        <time>2015-06-07T09:30:05Z</time>
      </trkpt>
      <trkpt lat="48.79256" lon="2.19798">
        <ele>145</ele>
        <time>2015-06-07T09:30:15Z</time>
      </trkpt>
      <trkpt lat="48.7926" lon="2.19782">
        <ele>151</ele>
        <time>2015-06-07T09:30:21Z</time>
      </trkpt>
      <trkpt lat="48.79273" lon="2.19714">
        <ele>154</ele>
        <time>2015-06-07T09:30:51Z</time>
      </trkpt>
      <trkpt lat="48.79275" lon="2.19699">
        <ele>159</ele>
        <time>2015-06-07T09:30:58Z</time>
      </trkpt>
      <trkpt lat="48.79274" lon="2.19695">
        <ele>160</ele>
        <time>2015-06-07T09:31:00Z</time>
      </trkpt>
      <trkpt lat="48.79274" lon="2.19692">
        <ele>161</ele>
        <time>2015-06-07T09:31:02Z</time>
      </trkpt>
      <trkpt lat="48.79284" lon="2.19647">
        <ele>156</ele>
        <time>2015-06-07T09:31:22Z</time>
      </trkpt>
      <trkpt lat="48.79284" lon="2.19644">
        <ele>156</ele>
        <time>2015-06-07T09:31:24Z</time>
      </trkpt>
      <trkpt lat="48.79282" lon="2.19641">
        <ele>157</ele>
        <time>2015-06-07T09:31:26Z</time>
      </trkpt>
      <trkpt lat="48.79281" lon="2.19637">
        <ele>157</ele>
        <time>2015-06-07T09:31:28Z</time>
      </trkpt>
      <trkpt lat="48.79282" lon="2.19598">
        <ele>154</ele>
        <time>2015-06-07T09:31:41Z</time>
      </trkpt>
      <trkpt lat="48.79283" lon="2.19582">
        <ele>148</ele>
        <time>2015-06-07T09:31:46Z</time>
      </trkpt>
      <trkpt lat="48.79259" lon="2.19521">
        <ele>150</ele>
        <time>2015-06-07T09:32:16Z</time>
      </trkpt>
      <trkpt lat="48.79236" lon="2.1945">
        <ele>141</ele>
        <time>2015-06-07T09:32:46Z</time>
      </trkpt>
      <trkpt lat="48.79232" lon="2.19444">
        <ele>141</ele>
        <time>2015-06-07T09:32:50Z</time>
      </trkpt>
      <trkpt lat="48.79208" lon="2.1938">
        <ele>141</ele>
        <time>2015-06-07T09:33:21Z</time>
      </trkpt>
      <trkpt lat="48.79206" lon="2.19378">
        <ele>142</ele>
        <time>2015-06-07T09:33:23Z</time>
      </trkpt>
      <trkpt lat="48.79181" lon="2.19321">
        <ele>144</ele>
        <time>2015-06-07T09:33:54Z</time>
      </trkpt>
      <trkpt lat="48.79161" lon="2.19281">
        <ele>147</ele>
        <time>2015-06-07T09:34:13Z</time>
      </trkpt>
      <trkpt lat="48.79156" lon="2.19262">
        <ele>143</ele>
        <time>2015-06-07T09:34:19Z</time>
      </trkpt>
      <trkpt lat="48.7917" lon="2.19173">
        <ele>119</ele>
        <time>2015-06-07T09:34:49Z</time>
      </trkpt>
      <trkpt lat="48.79184" lon="2.19126">
        <ele>124</ele>
        <time>2015-06-07T09:35:09Z</time>
      </trkpt>
      <trkpt lat="48.79188" lon="2.19101">
        <ele>128</ele>
        <time>2015-06-07T09:35:21Z</time>
      </trkpt>
      <trkpt lat="48.79189" lon="2.19098">
        <ele>135</ele>
        <time>2015-06-07T09:35:25Z</time>
      </trkpt>
      <trkpt lat="48.79204" lon="2.19036">
        <ele>145</ele>
        <time>2015-06-07T09:35:56Z</time>
      </trkpt>
      <trkpt lat="48.79207" lon="2.19024">
        <ele>149</ele>
        <time>2015-06-07T09:36:02Z</time>
      </trkpt>
      <trkpt lat="48.79207" lon="2.19015">
        <ele>149</ele>
        <time>2015-06-07T09:36:06Z</time>
      </trkpt>
      <trkpt lat="48.79209" lon="2.19012">
        <ele>150</ele>
        <time>2015-06-07T09:36:08Z</time>
      </trkpt>
      <trkpt lat="48.79212" lon="2.19003">
        <ele>156</ele>
        <time>2015-06-07T09:36:14Z</time>
      </trkpt>
      <trkpt lat="48.79219" lon="2.18986">
        <ele>160</ele>
        <time>2015-06-07T09:36:26Z</time>
      </trkpt>
      <trkpt lat="48.79229" lon="2.18921">
        <ele>164</ele>
        <time>2015-06-07T09:36:56Z</time>
      </trkpt>
      <trkpt lat="48.79245" lon="2.18862">
        <ele>155</ele>
        <time>2015-06-07T09:37:26Z</time>
      </trkpt>
      <trkpt lat="48.79248" lon="2.18841">
        <ele>155</ele>
        <time>2015-06-07T09:37:35Z</time>
      </trkpt>
      <trkpt lat="48.7925" lon="2.18838">
        <ele>155</ele>
        <time>2015-06-07T09:37:37Z</time>
      </trkpt>
      <trkpt lat="48.79254" lon="2.18813">
        <ele>158</ele>
        <time>2015-06-07T09:37:47Z</time>
      </trkpt>
      <trkpt lat="48.79275" lon="2.18746">
        <ele>153</ele>
        <time>2015-06-07T09:38:19Z</time>
      </trkpt>
      <trkpt lat="48.7928" lon="2.18732">
        <ele>154</ele>
        <time>2015-06-07T09:38:25Z</time>
      </trkpt>
      <trkpt lat="48.7929" lon="2.1868">
        <ele>157</ele>
        <time>2015-06-07T09:38:50Z</time>
      </trkpt>
      <trkpt lat="48.79301" lon="2.18614">
        <ele>158</ele>
        <time>2015-06-07T09:39:16Z</time>
      </trkpt>
      <trkpt lat="48.79316" lon="2.1857">
        <ele>161</ele>
        <time>2015-06-07T09:39:36Z</time>
      </trkpt>
    </trkseg>
  </trk>
</gpx>